createdAt,value
2022-11-29T00:01:57.500Z,39.75
2022-11-29T00:04:26.080Z,41.75
2022-11-29T00:06:54.738Z,44.25
2022-11-29T00:09:23.326Z,42.25
2022-11-29T00:12:09.350Z,40.25
2022-11-29T00:14:39.350Z,38.75
2022-11-29T00:17:08.400Z,41.00
2022-11-29T00:19:38.152Z,39.50
2022-11-29T00:22:06.905Z,35.75
2022-11-29T00:24:36.227Z,36.75
2022-11-29T00:27:05.300Z,42.25
2022-11-29T00:29:34.810Z,41.75
2022-11-29T00:32:05.273Z,39.75
2022-11-29T00:34:33.768Z,40.75
2022-11-29T00:37:02.444Z,33.00
2022-11-29T00:39:31.034Z,41.00
2022-11-29T00:41:59.694Z,40.75
2022-11-29T00:44:28.052Z,36.75
2022-11-29T00:46:56.790Z,43.00
2022-11-29T00:49:26.615Z,42.25
2022-11-29T00:51:55.375Z,39.50
2022-11-29T00:54:23.719Z,42.50
2022-11-29T00:56:52.888Z,42.00
2022-11-29T00:59:21.444Z,39.00
2022-11-29T01:01:50.174Z,24.75
2022-11-29T01:04:18.742Z,40.75
2022-11-29T01:06:52.569Z,36.75
2022-11-29T01:09:21.109Z,37.00
2022-11-29T01:11:51.066Z,31.25
2022-11-29T01:14:19.529Z,38.75
2022-11-29T01:16:48.446Z,34.00
2022-11-29T01:19:16.738Z,40.00
2022-11-29T01:21:45.440Z,32.25
2022-11-29T01:24:15.161Z,36.50
2022-11-29T01:26:43.522Z,37.80
2022-11-29T01:29:14.444Z,39.50
2022-11-29T01:31:42.831Z,36.25
2022-11-29T01:34:12.066Z,21.50
2022-11-29T01:36:40.526Z,35.75
2022-11-29T01:39:09.468Z,33.60
2022-11-29T01:41:39.581Z,37.50
2022-11-29T01:44:29.212Z,34.80
2022-11-29T01:46:58.411Z,35.00
2022-11-29T01:49:32.926Z,33.80
2022-11-29T01:52:06.064Z,31.40
2022-11-29T01:54:38.782Z,29.50
2022-11-29T01:57:10.176Z,31.50
2022-11-29T01:59:44.391Z,29.40
2022-11-29T02:02:15.645Z,31.20
2022-11-29T02:04:47.052Z,34.20
2022-11-29T02:07:16.076Z,31.20
2022-11-29T02:09:45.393Z,28.40
2022-11-29T02:12:28.739Z,32.40
2022-11-29T02:15:09.884Z,35.00
2022-11-29T02:17:53.586Z,31.40
2022-11-29T02:20:55.586Z,31.20
2022-11-29T02:23:52.703Z,32.00
2022-11-29T02:26:38.917Z,33.40
2022-11-29T02:29:44.567Z,32.20
2022-11-29T02:32:58.576Z,33.00
2022-11-29T02:35:50.776Z,34.25
2022-11-29T02:38:36.314Z,35.00
2022-11-29T02:41:23.417Z,30.20
2022-11-29T02:44:08.038Z,34.40
2022-11-29T02:46:56.368Z,37.20
2022-11-29T02:49:42.742Z,33.75
2022-11-29T02:52:19.692Z,32.00
2022-11-29T02:54:55.053Z,35.50
2022-11-29T02:57:33.076Z,39.00
2022-11-29T03:00:06.780Z,32.60
2022-11-29T03:02:42.163Z,30.60
2022-11-29T03:05:21.701Z,39.20
2022-11-29T03:07:59.853Z,33.75
2022-11-29T03:10:39.613Z,30.25
2022-11-29T03:13:19.121Z,35.00
2022-11-29T03:15:58.854Z,41.50
2022-11-29T03:18:35.827Z,36.20
2022-11-29T03:21:20.379Z,36.50
2022-11-29T03:23:51.660Z,37.75
2022-11-29T03:26:25.882Z,38.25
2022-11-29T03:29:01.296Z,30.80
2022-11-29T03:31:34.771Z,38.25
2022-11-29T03:34:17.829Z,29.20
2022-11-29T03:36:57.192Z,26.40
2022-11-29T03:39:35.430Z,35.75
2022-11-29T03:42:09.902Z,38.40
2022-11-29T03:44:47.758Z,39.00
2022-11-29T03:47:21.082Z,31.20
2022-11-29T03:49:55.788Z,40.25
2022-11-29T03:52:33.203Z,36.75
2022-11-29T03:55:20.173Z,39.75
2022-11-29T03:58:15.004Z,34.75
2022-11-29T04:01:08.349Z,37.00
2022-11-29T04:04:00.001Z,36.75
2022-11-29T04:06:48.079Z,38.75
2022-11-29T04:09:43.469Z,33.00
2022-11-29T04:12:58.553Z,38.00
2022-11-29T04:16:06.117Z,41.25
2022-11-29T04:19:13.101Z,40.25
2022-11-29T04:22:11.501Z,38.75
2022-11-29T04:25:12.242Z,40.75
2022-11-29T04:28:05.026Z,42.50
2022-11-29T04:30:47.432Z,38.75
2022-11-29T04:33:42.878Z,39.75
2022-11-29T04:36:48.882Z,36.75
2022-11-29T04:39:38.750Z,40.50
2022-11-29T04:42:36.715Z,36.00
2022-11-29T04:45:46.912Z,41.00
2022-11-29T04:48:33.652Z,40.00
2022-11-29T04:51:15.751Z,35.75
2022-11-29T04:53:53.188Z,36.50
2022-11-29T04:56:34.375Z,31.00
2022-11-29T04:59:11.209Z,39.75
2022-11-29T05:01:55.799Z,33.50
2022-11-29T05:04:31.407Z,34.75
2022-11-29T05:07:07.430Z,33.75
2022-11-29T05:09:51.225Z,47.25
2022-11-29T05:12:29.061Z,36.25
2022-11-29T05:15:18.399Z,35.50
2022-11-29T05:17:57.873Z,8.75
2022-11-29T05:20:40.293Z,36.00
2022-11-29T05:23:27.025Z,33.00
2022-11-29T05:26:02.375Z,32.40
2022-11-29T05:28:43.518Z,35.00
2022-11-29T05:31:31.551Z,29.00
2022-11-29T05:34:21.663Z,33.80
2022-11-29T05:37:02.682Z,28.60
2022-11-29T05:39:42.405Z,30.80
2022-11-29T05:42:39.839Z,31.80
2022-11-29T05:45:19.135Z,28.00
2022-11-29T05:47:55.160Z,30.80
2022-11-29T05:50:31.961Z,28.00
2022-11-29T05:53:21.764Z,28.80
2022-11-29T05:56:00.471Z,25.00
2022-11-29T05:58:48.919Z,32.60
2022-11-29T06:01:23.884Z,33.20
2022-11-29T06:03:59.371Z,30.20
2022-11-29T06:06:39.700Z,29.40
2022-11-29T06:09:17.514Z,29.20
2022-11-29T06:11:50.343Z,32.60
2022-11-29T06:14:36.847Z,29.00
2022-11-29T06:17:38.997Z,24.40
2022-11-29T06:20:34.467Z,29.60
2022-11-29T06:23:24.660Z,18.20
2022-11-29T06:26:11.303Z,21.20
2022-11-29T06:28:55.802Z,25.40
2022-11-29T06:31:28.235Z,27.40
2022-11-29T06:34:03.598Z,30.20
2022-11-29T06:36:37.254Z,36.25
2022-11-29T06:39:08.384Z,44.75
2022-11-29T06:41:37.413Z,44.50
2022-11-29T06:44:07.167Z,39.25
2022-11-29T06:46:46.973Z,39.50
2022-11-29T06:49:24.275Z,33.80
2022-11-29T06:52:04.551Z,31.40
2022-11-29T06:54:48.508Z,35.00
2022-11-29T06:57:25.375Z,30.40
2022-11-29T07:00:04.924Z,31.80
2022-11-29T07:02:56.371Z,30.80
2022-11-29T07:05:28.762Z,29.80
2022-11-29T07:07:59.415Z,25.40
2022-11-29T07:10:33.110Z,29.40
2022-11-29T07:13:02.130Z,29.20
2022-11-29T07:15:31.614Z,28.20
2022-11-29T07:18:13.263Z,29.20
2022-11-29T07:20:51.359Z,35.80
2022-11-29T07:23:28.269Z,23.80
2022-11-29T07:26:15.069Z,29.00
2022-11-29T07:29:01.779Z,32.20
2022-11-29T07:31:42.819Z,28.20
2022-11-29T07:34:20.024Z,31.60
2022-11-29T07:37:00.578Z,28.80
2022-11-29T07:39:41.801Z,32.60
2022-11-29T07:42:20.707Z,34.40
2022-11-29T07:45:00.677Z,28.40
2022-11-29T07:47:35.293Z,28.20
2022-11-29T07:50:05.256Z,33.40
2022-11-29T07:52:34.720Z,31.20
2022-11-29T07:55:03.492Z,31.80
2022-11-29T07:57:33.529Z,28.60
2022-11-29T08:00:02.053Z,30.60
2022-11-29T08:02:40.866Z,27.00
2022-11-29T08:05:10.462Z,26.00
2022-11-29T08:07:41.181Z,27.00
2022-11-29T08:10:12.068Z,27.40
2022-11-29T08:12:45.411Z,27.00
2022-11-29T08:15:14.491Z,32.20
2022-11-29T08:17:43.214Z,26.00
2022-11-29T08:20:12.816Z,20.80
2022-11-29T08:22:41.599Z,28.80
2022-11-29T08:25:11.669Z,25.40
2022-11-29T08:27:40.724Z,23.60
2022-11-29T08:30:11.212Z,28.00
2022-11-29T08:32:39.972Z,25.80
2022-11-29T08:35:08.812Z,24.80
2022-11-29T08:37:37.675Z,25.60
2022-11-29T08:40:07.443Z,26.80
2022-11-29T08:42:36.234Z,24.40
2022-11-29T08:45:06.355Z,28.00
2022-11-29T08:47:41.053Z,28.20
2022-11-29T08:50:12.435Z,28.20
2022-11-29T08:53:01.119Z,24.20
2022-11-29T08:55:33.802Z,21.40
2022-11-29T08:58:04.453Z,25.60
2022-11-29T09:00:33.839Z,22.40
2022-11-29T09:03:22.544Z,18.40
2022-11-29T09:05:51.204Z,19.00
2022-11-29T09:08:20.615Z,17.20
2022-11-29T09:10:49.403Z,17.60
2022-11-29T09:13:18.782Z,17.00
2022-11-29T09:15:47.285Z,18.80
2022-11-29T09:18:17.383Z,14.40
2022-11-29T09:20:46.104Z,23.00
2022-11-29T09:23:14.931Z,17.00
2022-11-29T09:25:49.162Z,16.60
2022-11-29T09:28:17.957Z,17.80
2022-11-29T09:30:46.339Z,17.80
2022-11-29T09:33:15.009Z,17.00
2022-11-29T09:35:44.911Z,16.40
2022-11-29T09:38:14.253Z,16.40
2022-11-29T09:40:49.627Z,17.80
2022-11-29T09:43:28.912Z,17.00
2022-11-29T09:46:04.254Z,16.80
2022-11-29T09:48:57.685Z,15.60
2022-11-29T09:51:31.649Z,19.00
2022-11-29T09:54:23.296Z,13.20
2022-11-29T09:56:55.557Z,14.60
2022-11-29T09:59:29.065Z,15.80
2022-11-29T10:02:04.053Z,17.00
2022-11-29T10:04:40.420Z,13.80
2022-11-29T10:07:18.488Z,14.20
2022-11-29T10:09:53.080Z,13.00
2022-11-29T10:12:31.707Z,15.20
2022-11-29T10:15:08.675Z,13.00
2022-11-29T10:17:41.813Z,17.40
2022-11-29T10:20:16.949Z,11.20
2022-11-29T10:22:53.683Z,17.40
2022-11-29T10:25:26.319Z,16.80
2022-11-29T10:27:55.495Z,18.00
2022-11-29T10:30:24.604Z,17.60
2022-11-29T10:32:58.926Z,14.00
2022-11-29T10:35:29.583Z,15.40
2022-11-29T10:40:57.651Z,14.40
2022-11-29T10:43:27.343Z,15.20
2022-11-29T10:45:57.155Z,18.00
2022-11-29T10:48:31.837Z,24.20
2022-11-29T10:51:01.873Z,21.00
2022-11-29T10:53:35.913Z,25.60
2022-11-29T10:56:09.563Z,28.00
2022-11-29T10:58:54.669Z,24.00
2022-11-29T11:01:24.230Z,24.80
2022-11-29T11:03:54.417Z,25.20
2022-11-29T11:06:25.425Z,24.40
2022-11-29T11:08:57.325Z,24.40
2022-11-29T11:11:29.406Z,25.00
2022-11-29T11:14:02.914Z,23.80
2022-11-29T11:16:37.141Z,22.40
2022-11-29T11:19:25.221Z,23.00
2022-11-29T11:21:54.503Z,19.60
2022-11-29T11:24:25.973Z,25.40
2022-11-29T11:26:54.904Z,23.00
2022-11-29T11:29:26.858Z,16.60
2022-11-29T11:31:57.934Z,26.20
2022-11-29T11:34:29.591Z,21.80
2022-11-29T11:37:20.281Z,24.80
2022-11-29T11:39:51.711Z,22.40
2022-11-29T11:42:39.293Z,26.20
2022-11-29T11:45:38.838Z,26.80
2022-11-29T11:48:14.912Z,25.00
2022-11-29T11:50:46.121Z,27.20
2022-11-29T11:53:22.674Z,24.40
2022-11-29T11:56:02.404Z,20.80
2022-11-29T11:58:33.886Z,25.40
2022-11-29T12:01:16.616Z,24.80
2022-11-29T12:03:52.614Z,25.80
2022-11-29T12:06:45.010Z,24.20
2022-11-29T12:09:24.602Z,21.80
2022-11-29T12:12:04.435Z,24.40
2022-11-29T12:14:43.787Z,23.40
2022-11-29T12:17:20.395Z,28.20
2022-11-29T12:20:05.564Z,32.00
2022-11-29T12:22:45.249Z,29.20
2022-11-29T12:25:23.678Z,23.40
2022-11-29T12:27:53.773Z,21.60
2022-11-29T12:30:22.648Z,20.80
2022-11-29T12:33:05.295Z,23.00
2022-11-29T12:35:49.772Z,21.80
2022-11-29T12:38:33.189Z,22.60
2022-11-29T12:41:19.311Z,21.80
2022-11-29T12:44:00.002Z,22.20
2022-11-29T12:46:30.303Z,19.00
2022-11-29T12:49:07.656Z,23.80
2022-11-29T12:51:44.571Z,21.20
2022-11-29T12:54:36.618Z,14.20
2022-11-29T12:57:11.526Z,18.80
2022-11-29T13:00:00.813Z,15.20
2022-11-29T13:02:42.372Z,19.60
2022-11-29T13:05:21.784Z,17.60
2022-11-29T13:08:12.326Z,18.00
2022-11-29T13:11:03.541Z,20.40
2022-11-29T13:13:40.239Z,21.40
2022-11-29T13:16:31.136Z,16.20
2022-11-29T13:19:10.206Z,26.20
2022-11-29T13:21:46.765Z,24.80
2022-11-29T13:24:23.792Z,19.00
2022-11-29T13:26:54.555Z,20.60
2022-11-29T13:29:23.647Z,18.40
2022-11-29T13:31:53.709Z,19.20
2022-11-29T13:34:27.303Z,17.20
2022-11-29T13:37:06.021Z,16.60
2022-11-29T13:39:49.993Z,17.40
2022-11-29T13:42:24.917Z,21.00
2022-11-29T13:45:04.074Z,19.60
2022-11-29T13:47:34.013Z,18.00
2022-11-29T13:50:06.201Z,24.20
2022-11-29T13:52:45.202Z,25.00
2022-11-29T13:55:28.630Z,23.40
2022-11-29T13:58:18.895Z,24.40
2022-11-29T14:00:52.757Z,25.80
2022-11-29T14:03:31.219Z,26.40
2022-11-29T14:06:10.373Z,24.80
2022-11-29T14:11:36.792Z,19.60
2022-11-29T14:14:09.511Z,20.40
2022-11-29T14:16:47.569Z,21.00
2022-11-29T14:19:32.802Z,25.60
2022-11-29T14:22:23.180Z,23.00
2022-11-29T14:25:08.158Z,27.00
2022-11-29T14:27:58.059Z,24.20
2022-11-29T14:30:51.299Z,24.60
2022-11-29T14:33:33.333Z,25.20
2022-11-29T14:36:26.814Z,26.80
2022-11-29T14:39:06.039Z,27.00
2022-11-29T14:41:50.661Z,26.20
2022-11-29T14:44:24.275Z,28.20
2022-11-29T14:47:02.650Z,27.60
2022-11-29T14:49:33.453Z,30.20
2022-11-29T14:52:27.248Z,27.80
2022-11-29T14:55:02.196Z,29.80
2022-11-29T14:58:13.817Z,34.40
2022-11-29T15:00:56.171Z,32.60
2022-11-29T15:03:32.854Z,25.80
2022-11-29T15:06:13.116Z,35.80
2022-11-29T15:08:51.992Z,31.60
2022-11-29T15:11:37.770Z,33.60
2022-11-29T15:14:08.306Z,31.40
2022-11-29T15:16:51.668Z,33.25
2022-11-29T15:20:01.253Z,38.20
2022-11-29T15:22:39.117Z,39.00
2022-11-29T15:25:14.764Z,36.40
2022-11-29T15:27:54.574Z,37.00
2022-11-29T15:30:30.218Z,37.75
2022-11-29T15:33:00.962Z,29.80
2022-11-29T15:35:29.871Z,23.50
2022-11-29T15:37:58.688Z,37.25
2022-11-29T15:40:35.464Z,31.40
2022-11-29T15:43:16.636Z,29.80
2022-11-29T15:45:48.703Z,30.40
2022-11-29T15:48:21.164Z,34.25
2022-11-29T15:50:56.433Z,33.60
2022-11-29T15:53:29.144Z,30.60
2022-11-29T15:56:02.184Z,30.80
2022-11-29T15:58:34.019Z,29.40
2022-11-29T16:01:03.699Z,28.20
2022-11-29T16:03:46.581Z,31.80
2022-11-29T16:06:25.313Z,25.40
2022-11-29T16:08:55.428Z,29.00
2022-11-29T16:11:29.429Z,29.80
2022-11-29T16:14:14.451Z,26.80
2022-11-29T16:16:45.378Z,25.40
2022-11-29T16:19:24.417Z,28.00
2022-11-29T16:22:18.412Z,21.60
2022-11-29T16:24:53.278Z,24.20
2022-11-29T16:27:24.130Z,27.60
2022-11-29T16:29:55.690Z,25.20
2022-11-29T16:32:30.143Z,26.00
2022-11-29T16:35:08.057Z,23.40
2022-11-29T16:37:41.633Z,21.00
2022-11-29T16:40:22.554Z,20.80
2022-11-29T16:43:08.771Z,16.20
2022-11-29T16:45:39.541Z,24.40
2022-11-29T16:48:29.943Z,19.60
2022-11-29T16:51:18.297Z,20.80
2022-11-29T16:53:49.870Z,24.40
2022-11-29T16:56:20.363Z,19.00
2022-11-29T16:59:16.928Z,27.40
2022-11-29T17:01:43.091Z,23.00
2022-11-29T17:04:11.557Z,23.40
2022-11-29T17:06:53.203Z,24.60
2022-11-29T17:09:25.533Z,23.80
2022-11-29T17:11:54.408Z,23.20
2022-11-29T17:14:24.318Z,19.60
2022-11-29T17:16:53.092Z,22.40
2022-11-29T17:19:23.817Z,19.20
2022-11-29T17:21:53.378Z,19.80
2022-11-29T17:24:23.201Z,19.60
2022-11-29T17:26:52.627Z,19.40
2022-11-29T17:29:20.995Z,19.80
2022-11-29T17:31:53.257Z,18.80
2022-11-29T17:34:21.686Z,23.40
2022-11-29T17:36:50.987Z,19.40
2022-11-29T17:39:20.308Z,25.20
2022-11-29T17:41:49.144Z,19.00
2022-11-29T17:44:17.670Z,22.60
2022-11-29T17:46:46.456Z,19.80
2022-11-29T17:49:18.635Z,16.80
2022-11-29T17:51:52.337Z,21.60
2022-11-29T17:54:21.981Z,22.00
2022-11-29T17:56:50.919Z,19.40
2022-11-29T17:59:19.421Z,29.80
2022-11-29T18:01:48.188Z,19.20
2022-11-29T18:04:18.293Z,19.80
2022-11-29T18:06:50.252Z,19.80
2022-11-29T18:09:20.127Z,16.00
2022-11-29T18:11:50.602Z,17.80
2022-11-29T18:14:21.352Z,14.00
2022-11-29T18:16:50.324Z,18.40
2022-11-29T18:19:22.993Z,21.80
2022-11-29T18:21:52.378Z,19.20
2022-11-29T18:24:20.992Z,16.80
2022-11-29T18:26:49.856Z,19.40
2022-11-29T18:29:18.811Z,23.80
2022-11-29T18:31:48.150Z,18.40
2022-11-29T18:34:16.842Z,20.20
2022-11-29T18:36:48.495Z,23.80
2022-11-29T18:39:19.265Z,23.40
2022-11-29T18:41:49.726Z,16.80
2022-11-29T18:44:20.235Z,22.80
2022-11-29T18:46:49.149Z,19.20
2022-11-29T18:49:19.423Z,15.00
2022-11-29T18:51:50.861Z,25.60
2022-11-29T18:54:20.218Z,19.00
2022-11-29T18:56:51.854Z,23.60
2022-11-29T18:59:22.093Z,23.40
2022-11-29T19:01:50.797Z,24.40
2022-11-29T19:04:21.524Z,23.40
2022-11-29T19:06:51.544Z,26.40
2022-11-29T19:09:22.058Z,23.80
2022-11-29T19:11:51.603Z,19.20
2022-11-29T19:14:20.870Z,34.40
2022-11-29T19:16:50.638Z,31.25
2022-11-29T19:19:19.949Z,27.20
2022-11-29T19:21:49.098Z,21.80
2022-11-29T19:24:19.885Z,24.40
2022-11-29T19:26:50.575Z,25.20
2022-11-29T19:29:19.191Z,27.80
2022-11-29T19:31:47.918Z,25.20
2022-11-29T19:34:16.302Z,22.80
2022-11-29T19:36:45.635Z,23.00
2022-11-29T19:39:16.234Z,23.40
2022-11-29T19:41:47.991Z,23.40
2022-11-29T19:44:16.897Z,27.20
2022-11-29T19:46:48.714Z,18.60
2022-11-29T19:49:18.008Z,21.80
2022-11-29T19:51:46.483Z,28.60
2022-11-29T19:54:15.612Z,28.00
2022-11-29T19:56:45.689Z,25.00
2022-11-29T19:59:15.886Z,28.60
2022-11-29T20:01:44.339Z,31.20
2022-11-29T20:04:16.614Z,25.40
2022-11-29T20:06:46.979Z,23.60
2022-11-29T20:09:15.982Z,25.00
2022-11-29T20:11:45.931Z,24.00
2022-11-29T20:14:15.234Z,29.00
2022-11-29T20:16:43.816Z,27.20
2022-11-29T20:19:14.026Z,28.80
2022-11-29T20:21:44.467Z,21.80
2022-11-29T20:24:14.415Z,27.60
2022-11-29T20:26:46.398Z,31.80
2022-11-29T20:29:16.008Z,29.60
2022-11-29T20:31:49.940Z,28.20
2022-11-29T20:34:20.842Z,25.80
2022-11-29T20:37:19.498Z,24.00
2022-11-29T20:39:55.052Z,24.40
2022-11-29T20:42:42.197Z,23.20
2022-11-29T20:45:14.411Z,23.20
2022-11-29T20:47:52.006Z,20.20
2022-11-29T20:50:24.069Z,22.40
2022-11-29T20:53:12.742Z,18.80
2022-11-29T20:55:47.770Z,15.60
2022-11-29T20:58:19.515Z,19.40
2022-11-29T21:00:48.318Z,16.20
2022-11-29T21:03:17.325Z,17.00
2022-11-29T21:05:46.821Z,15.00
2022-11-29T21:08:17.135Z,16.00
2022-11-29T21:10:46.604Z,19.00
2022-11-29T21:13:17.662Z,17.80
2022-11-29T21:15:47.268Z,21.80
2022-11-29T21:18:23.601Z,17.00
2022-11-29T21:21:08.263Z,23.80
2022-11-29T21:23:47.700Z,20.60
2022-11-29T21:26:21.441Z,18.80
2022-11-29T21:29:02.755Z,19.00
2022-11-29T21:31:32.169Z,17.40
2022-11-29T21:34:01.094Z,17.40
2022-11-29T21:36:30.554Z,19.40
2022-11-29T21:39:03.576Z,16.60
2022-11-29T21:41:33.941Z,19.20
2022-11-29T21:44:07.183Z,18.80
2022-11-29T21:46:37.285Z,17.20
2022-11-29T21:49:06.296Z,12.80
2022-11-29T21:51:35.262Z,15.60
2022-11-29T21:54:03.756Z,17.20
2022-11-29T21:56:32.572Z,14.40
2022-11-29T21:59:01.015Z,14.00
2022-11-29T22:01:33.639Z,16.20
2022-11-29T22:04:02.121Z,18.20
2022-11-29T22:06:30.780Z,20.00
2022-11-29T22:09:00.061Z,17.80
2022-11-29T22:11:31.903Z,19.00
2022-11-29T22:14:18.433Z,16.20
2022-11-29T22:16:50.825Z,18.80
2022-11-29T22:19:21.550Z,16.00
2022-11-29T22:21:52.604Z,15.40
2022-11-29T22:24:23.439Z,15.80
2022-11-29T22:26:53.311Z,14.00
2022-11-29T22:29:22.375Z,12.60
2022-11-29T22:31:55.501Z,12.80
2022-11-29T22:34:25.242Z,13.20
2022-11-29T22:36:54.303Z,14.60
2022-11-29T22:39:24.807Z,13.60
2022-11-29T22:41:55.031Z,16.80
2022-11-29T22:44:23.834Z,15.20
2022-11-29T22:46:53.994Z,10.40
2022-11-29T22:49:22.518Z,14.60
2022-11-29T22:51:52.247Z,12.80
2022-11-29T22:54:20.724Z,11.20
2022-11-29T22:56:49.514Z,15.60
2022-11-29T22:59:17.930Z,13.60
2022-11-29T23:01:47.106Z,10.00
2022-11-29T23:04:16.951Z,10.40
2022-11-29T23:06:46.994Z,11.00
2022-11-29T23:09:18.914Z,15.20
2022-11-29T23:11:51.076Z,12.00
2022-11-29T23:14:20.216Z,11.40
2022-11-29T23:16:48.873Z,9.40
2022-11-29T23:19:18.814Z,6.60
2022-11-29T23:21:47.546Z,10.60
2022-11-29T23:24:16.872Z,10.80
2022-11-29T23:26:47.357Z,12.60
2022-11-29T23:29:18.122Z,11.00
2022-11-29T23:31:47.799Z,10.80
2022-11-29T23:34:16.351Z,8.40
2022-11-29T23:36:52.420Z,8.40
2022-11-29T23:39:21.830Z,9.60
2022-11-29T23:41:50.829Z,11.20
2022-11-29T23:44:19.265Z,10.20
2022-11-29T23:46:47.879Z,12.40
2022-11-29T23:49:16.240Z,11.00
2022-11-29T23:51:46.297Z,10.80
2022-11-29T23:54:14.649Z,10.80
2022-11-29T23:56:43.317Z,9.60
2022-11-29T23:59:11.685Z,12.80
